sensor_id;sensor_type;location;lat;lon;timestamp;P1;durP1;ratioP1;P2;durP2;ratioP2
73776;SDS011;62088;50.240;2.696;2022-12-26T00:00:55;6.13;;;4.30;;
73776;SDS011;62088;50.240;2.696;2022-12-26T00:03:24;9.15;;;4.70;;
73776;SDS011;62088;50.240;2.696;2022-12-26T00:05:52;8.00;;;4.43;;
73776;SDS011;62088;50.240;2.696;2022-12-26T00:08:19;7.63;;;4.68;;
73776;SDS011;62088;50.240;2.696;2022-12-26T00:10:46;6.68;;;4.32;;
73776;SDS011;62088;50.240;2.696;2022-12-26T00:13:13;6.25;;;4.13;;
73776;SDS011;62088;50.240;2.696;2022-12-26T00:16:04;6.55;;;4.40;;
73776;SDS011;62088;50.240;2.696;2022-12-26T00:18:38;7.03;;;4.50;;
73776;SDS011;62088;50.240;2.696;2022-12-26T00:21:06;7.20;;;4.82;;
73776;SDS011;62088;50.240;2.696;2022-12-26T00:23:35;9.88;;;4.82;;
73776;SDS011;62088;50.240;2.696;2022-12-26T00:26:06;6.57;;;4.25;;
73776;SDS011;62088;50.240;2.696;2022-12-26T00:28:36;8.40;;;4.57;;
73776;SDS011;62088;50.240;2.696;2022-12-26T00:31:07;6.18;;;4.47;;
73776;SDS011;62088;50.240;2.696;2022-12-26T00:33:37;7.38;;;4.90;;
73776;SDS011;62088;50.240;2.696;2022-12-26T00:36:08;9.40;;;5.28;;
73776;SDS011;62088;50.240;2.696;2022-12-26T00:38:41;6.78;;;5.05;;
73776;SDS011;62088;50.240;2.696;2022-12-26T00:41:09;7.30;;;5.20;;
73776;SDS011;62088;50.240;2.696;2022-12-26T00:43:38;8.55;;;5.30;;
73776;SDS011;62088;50.240;2.696;2022-12-26T00:46:05;8.68;;;4.50;;
73776;SDS011;62088;50.240;2.696;2022-12-26T00:48:33;8.43;;;5.40;;
73776;SDS011;62088;50.240;2.696;2022-12-26T00:51:01;9.55;;;5.60;;
73776;SDS011;62088;50.240;2.696;2022-12-26T00:53:29;8.90;;;5.20;;
73776;SDS011;62088;50.240;2.696;2022-12-26T00:55:57;7.22;;;4.78;;
73776;SDS011;62088;50.240;2.696;2022-12-26T00:58:24;7.25;;;5.10;;
73776;SDS011;62088;50.240;2.696;2022-12-26T01:00:51;7.60;;;5.40;;
73776;SDS011;62088;50.240;2.696;2022-12-26T01:03:19;9.95;;;4.70;;
73776;SDS011;62088;50.240;2.696;2022-12-26T01:05:47;7.00;;;4.78;;
73776;SDS011;62088;50.240;2.696;2022-12-26T01:08:16;6.55;;;4.18;;
73776;SDS011;62088;50.240;2.696;2022-12-26T01:10:49;7.13;;;4.57;;
73776;SDS011;62088;50.240;2.696;2022-12-26T01:13:16;7.95;;;4.10;;
73776;SDS011;62088;50.240;2.696;2022-12-26T01:15:47;5.65;;;3.42;;
73776;SDS011;62088;50.240;2.696;2022-12-26T01:18:18;7.93;;;3.58;;
73776;SDS011;62088;50.240;2.696;2022-12-26T01:20:46;5.88;;;3.58;;
73776;SDS011;62088;50.240;2.696;2022-12-26T01:23:14;6.18;;;3.00;;
73776;SDS011;62088;50.240;2.696;2022-12-26T01:25:41;5.28;;;3.00;;
73776;SDS011;62088;50.240;2.696;2022-12-26T01:28:28;12.23;;;2.97;;
73776;SDS011;62088;50.240;2.696;2022-12-26T01:31:01;6.80;;;2.95;;
73776;SDS011;62088;50.240;2.696;2022-12-26T01:33:29;5.10;;;3.00;;
73776;SDS011;62088;50.240;2.696;2022-12-26T01:35:56;5.22;;;3.45;;
73776;SDS011;62088;50.240;2.696;2022-12-26T01:38:24;7.18;;;3.65;;
73776;SDS011;62088;50.240;2.696;2022-12-26T01:40:51;7.43;;;4.10;;
73776;SDS011;62088;50.240;2.696;2022-12-26T01:48:53;7.07;;;4.55;;
73776;SDS011;62088;50.240;2.696;2022-12-26T01:51:27;9.80;;;5.28;;
73776;SDS011;62088;50.240;2.696;2022-12-26T01:53:59;11.55;;;5.57;;
73776;SDS011;62088;50.240;2.696;2022-12-26T01:56:50;8.27;;;5.85;;
73776;SDS011;62088;50.240;2.696;2022-12-26T01:59:19;9.27;;;5.60;;
73776;SDS011;62088;50.240;2.696;2022-12-26T02:01:51;8.48;;;5.22;;
73776;SDS011;62088;50.240;2.696;2022-12-26T02:04:26;7.05;;;5.53;;
73776;SDS011;62088;50.240;2.696;2022-12-26T02:07:16;10.05;;;5.90;;
73776;SDS011;62088;50.240;2.696;2022-12-26T02:09:43;8.82;;;6.40;;
73776;SDS011;62088;50.240;2.696;2022-12-26T02:12:15;11.65;;;7.35;;
73776;SDS011;62088;50.240;2.696;2022-12-26T02:15:04;11.77;;;7.82;;
73776;SDS011;62088;50.240;2.696;2022-12-26T02:17:44;9.32;;;7.25;;
73776;SDS011;62088;50.240;2.696;2022-12-26T02:31:27;8.32;;;4.55;;
73776;SDS011;62088;50.240;2.696;2022-12-26T02:34:03;10.40;;;5.60;;
73776;SDS011;62088;50.240;2.696;2022-12-26T02:37:44;9.27;;;6.22;;
73776;SDS011;62088;50.240;2.696;2022-12-26T02:39:52;7.25;;;4.68;;
73776;SDS011;62088;50.240;2.696;2022-12-26T02:42:40;6.80;;;5.10;;
73776;SDS011;62088;50.240;2.696;2022-12-26T02:45:31;6.88;;;4.93;;
73776;SDS011;62088;50.240;2.696;2022-12-26T02:48:51;6.97;;;4.80;;
73776;SDS011;62088;50.240;2.696;2022-12-26T02:54:47;5.80;;;3.78;;
73776;SDS011;62088;50.240;2.696;2022-12-26T02:57:48;6.82;;;4.63;;
73776;SDS011;62088;50.240;2.696;2022-12-26T03:00:42;5.85;;;4.63;;
73776;SDS011;62088;50.240;2.696;2022-12-26T03:03:30;5.63;;;4.47;;
73776;SDS011;62088;50.240;2.696;2022-12-26T03:06:28;7.10;;;4.47;;
73776;SDS011;62088;50.240;2.696;2022-12-26T03:09:19;5.22;;;3.55;;
73776;SDS011;62088;50.240;2.696;2022-12-26T03:15:30;7.32;;;5.05;;
73776;SDS011;62088;50.240;2.696;2022-12-26T03:18:18;7.28;;;5.38;;
73776;SDS011;62088;50.240;2.696;2022-12-26T03:21:08;7.78;;;4.88;;
73776;SDS011;62088;50.240;2.696;2022-12-26T03:23:37;11.55;;;5.57;;
73776;SDS011;62088;50.240;2.696;2022-12-26T03:26:14;7.03;;;5.30;;
73776;SDS011;62088;50.240;2.696;2022-12-26T03:29:12;6.50;;;5.10;;
73776;SDS011;62088;50.240;2.696;2022-12-26T03:32:00;7.18;;;4.85;;
73776;SDS011;62088;50.240;2.696;2022-12-26T03:34:30;5.95;;;4.30;;
73776;SDS011;62088;50.240;2.696;2022-12-26T03:37:03;6.47;;;4.50;;
73776;SDS011;62088;50.240;2.696;2022-12-26T03:40:19;6.25;;;4.30;;
73776;SDS011;62088;50.240;2.696;2022-12-26T03:43:21;7.03;;;4.60;;
73776;SDS011;62088;50.240;2.696;2022-12-26T03:49:26;10.65;;;4.25;;
73776;SDS011;62088;50.240;2.696;2022-12-26T03:52:19;6.28;;;4.30;;
73776;SDS011;62088;50.240;2.696;2022-12-26T03:55:31;5.47;;;3.78;;
73776;SDS011;62088;50.240;2.696;2022-12-26T03:58:21;7.20;;;3.72;;
73776;SDS011;62088;50.240;2.696;2022-12-26T04:01:14;6.05;;;3.90;;
73776;SDS011;62088;50.240;2.696;2022-12-26T04:07:02;7.20;;;3.72;;
73776;SDS011;62088;50.240;2.696;2022-12-26T04:09:56;7.57;;;3.05;;
73776;SDS011;62088;50.240;2.696;2022-12-26T04:12:49;5.07;;;2.70;;
73776;SDS011;62088;50.240;2.696;2022-12-26T04:18:39;5.55;;;2.55;;
73776;SDS011;62088;50.240;2.696;2022-12-26T04:21:51;4.97;;;2.13;;
73776;SDS011;62088;50.240;2.696;2022-12-26T04:28:16;5.47;;;1.90;;
73776;SDS011;62088;50.240;2.696;2022-12-26T04:31:06;6.47;;;2.10;;
73776;SDS011;62088;50.240;2.696;2022-12-26T04:33:59;4.32;;;1.73;;
73776;SDS011;62088;50.240;2.696;2022-12-26T04:36:57;4.88;;;1.80;;
73776;SDS011;62088;50.240;2.696;2022-12-26T04:39:47;3.38;;;1.63;;
73776;SDS011;62088;50.240;2.696;2022-12-26T04:42:35;5.38;;;2.03;;
73776;SDS011;62088;50.240;2.696;2022-12-26T04:45:21;9.73;;;1.70;;
73776;SDS011;62088;50.240;2.696;2022-12-26T04:47:49;5.28;;;1.60;;
73776;SDS011;62088;50.240;2.696;2022-12-26T04:50:35;5.18;;;1.63;;
73776;SDS011;62088;50.240;2.696;2022-12-26T04:53:02;5.97;;;1.63;;
73776;SDS011;62088;50.240;2.696;2022-12-26T04:55:31;3.42;;;1.30;;
73776;SDS011;62088;50.240;2.696;2022-12-26T04:57:58;2.85;;;1.15;;
73776;SDS011;62088;50.240;2.696;2022-12-26T05:00:26;3.70;;;1.17;;
73776;SDS011;62088;50.240;2.696;2022-12-26T05:02:54;5.28;;;1.60;;
73776;SDS011;62088;50.240;2.696;2022-12-26T05:05:46;3.72;;;1.30;;
73776;SDS011;62088;50.240;2.696;2022-12-26T05:08:38;5.15;;;1.40;;
73776;SDS011;62088;50.240;2.696;2022-12-26T05:11:26;5.80;;;1.15;;
73776;SDS011;62088;50.240;2.696;2022-12-26T05:13:55;3.80;;;1.30;;
73776;SDS011;62088;50.240;2.696;2022-12-26T05:16:24;4.68;;;1.70;;
73776;SDS011;62088;50.240;2.696;2022-12-26T05:19:25;5.97;;;1.60;;
73776;SDS011;62088;50.240;2.696;2022-12-26T05:22:10;5.55;;;1.42;;
73776;SDS011;62088;50.240;2.696;2022-12-26T05:24:55;5.10;;;1.10;;
73776;SDS011;62088;50.240;2.696;2022-12-26T05:27:43;5.00;;;1.20;;
73776;SDS011;62088;50.240;2.696;2022-12-26T05:30:29;4.47;;;1.40;;
73776;SDS011;62088;50.240;2.696;2022-12-26T05:32:56;5.60;;;1.50;;
73776;SDS011;62088;50.240;2.696;2022-12-26T05:35:41;5.30;;;1.40;;
73776;SDS011;62088;50.240;2.696;2022-12-26T05:38:09;6.85;;;1.08;;
73776;SDS011;62088;50.240;2.696;2022-12-26T05:40:36;8.45;;;1.30;;
73776;SDS011;62088;50.240;2.696;2022-12-26T05:43:03;5.28;;;1.30;;
73776;SDS011;62088;50.240;2.696;2022-12-26T05:45:30;3.78;;;1.15;;
73776;SDS011;62088;50.240;2.696;2022-12-26T05:47:58;6.00;;;1.50;;
73776;SDS011;62088;50.240;2.696;2022-12-26T05:50:27;5.63;;;1.23;;
73776;SDS011;62088;50.240;2.696;2022-12-26T05:52:57;5.50;;;1.55;;
73776;SDS011;62088;50.240;2.696;2022-12-26T05:55:25;5.32;;;1.50;;
73776;SDS011;62088;50.240;2.696;2022-12-26T05:57:52;3.85;;;1.15;;
73776;SDS011;62088;50.240;2.696;2022-12-26T06:00:19;5.40;;;1.40;;
73776;SDS011;62088;50.240;2.696;2022-12-26T06:02:47;7.18;;;1.35;;
73776;SDS011;62088;50.240;2.696;2022-12-26T06:05:14;5.68;;;1.58;;
73776;SDS011;62088;50.240;2.696;2022-12-26T06:07:42;6.22;;;2.08;;
73776;SDS011;62088;50.240;2.696;2022-12-26T06:10:09;8.25;;;3.47;;
73776;SDS011;62088;50.240;2.696;2022-12-26T06:12:36;5.07;;;1.88;;
73776;SDS011;62088;50.240;2.696;2022-12-26T06:15:04;7.78;;;2.08;;
73776;SDS011;62088;50.240;2.696;2022-12-26T06:17:31;5.38;;;1.73;;
73776;SDS011;62088;50.240;2.696;2022-12-26T06:19:58;7.75;;;1.67;;
73776;SDS011;62088;50.240;2.696;2022-12-26T06:22:27;8.60;;;1.50;;
73776;SDS011;62088;50.240;2.696;2022-12-26T06:24:55;5.45;;;1.50;;
73776;SDS011;62088;50.240;2.696;2022-12-26T06:27:22;5.32;;;1.45;;
73776;SDS011;62088;50.240;2.696;2022-12-26T06:29:49;7.20;;;1.73;;
73776;SDS011;62088;50.240;2.696;2022-12-26T06:32:16;7.78;;;1.80;;
73776;SDS011;62088;50.240;2.696;2022-12-26T06:34:43;6.88;;;1.30;;
73776;SDS011;62088;50.240;2.696;2022-12-26T06:37:10;4.93;;;1.38;;
73776;SDS011;62088;50.240;2.696;2022-12-26T06:39:37;10.57;;;1.70;;
73776;SDS011;62088;50.240;2.696;2022-12-26T06:42:04;5.20;;;1.60;;
73776;SDS011;62088;50.240;2.696;2022-12-26T06:44:31;6.10;;;1.52;;
73776;SDS011;62088;50.240;2.696;2022-12-26T06:46:58;6.72;;;1.50;;
73776;SDS011;62088;50.240;2.696;2022-12-26T06:49:25;8.02;;;1.70;;
73776;SDS011;62088;50.240;2.696;2022-12-26T06:51:58;9.70;;;1.85;;
73776;SDS011;62088;50.240;2.696;2022-12-26T06:54:25;5.93;;;1.45;;
73776;SDS011;62088;50.240;2.696;2022-12-26T06:56:52;5.03;;;1.67;;
73776;SDS011;62088;50.240;2.696;2022-12-26T06:59:19;8.00;;;2.72;;
73776;SDS011;62088;50.240;2.696;2022-12-26T07:01:46;5.63;;;1.83;;
73776;SDS011;62088;50.240;2.696;2022-12-26T07:04:14;9.30;;;2.10;;
73776;SDS011;62088;50.240;2.696;2022-12-26T07:06:41;5.15;;;1.58;;
73776;SDS011;62088;50.240;2.696;2022-12-26T07:09:10;5.60;;;1.60;;
73776;SDS011;62088;50.240;2.696;2022-12-26T07:11:41;8.30;;;1.35;;
73776;SDS011;62088;50.240;2.696;2022-12-26T07:14:09;6.93;;;1.60;;
73776;SDS011;62088;50.240;2.696;2022-12-26T07:16:37;4.68;;;1.50;;
73776;SDS011;62088;50.240;2.696;2022-12-26T07:19:06;6.70;;;1.80;;
73776;SDS011;62088;50.240;2.696;2022-12-26T07:21:33;8.55;;;2.05;;
73776;SDS011;62088;50.240;2.696;2022-12-26T07:24:06;8.35;;;2.25;;
73776;SDS011;62088;50.240;2.696;2022-12-26T07:26:44;10.27;;;2.30;;
73776;SDS011;62088;50.240;2.696;2022-12-26T07:29:12;6.72;;;1.90;;
73776;SDS011;62088;50.240;2.696;2022-12-26T07:31:40;7.45;;;1.90;;
73776;SDS011;62088;50.240;2.696;2022-12-26T07:34:08;8.65;;;2.00;;
73776;SDS011;62088;50.240;2.696;2022-12-26T07:36:35;7.90;;;1.52;;
73776;SDS011;62088;50.240;2.696;2022-12-26T07:39:02;6.97;;;2.00;;
73776;SDS011;62088;50.240;2.696;2022-12-26T07:41:29;5.97;;;1.90;;
73776;SDS011;62088;50.240;2.696;2022-12-26T07:44:26;7.28;;;1.65;;
73776;SDS011;62088;50.240;2.696;2022-12-26T07:46:55;9.95;;;1.90;;
73776;SDS011;62088;50.240;2.696;2022-12-26T07:49:23;6.72;;;1.40;;
73776;SDS011;62088;50.240;2.696;2022-12-26T07:51:50;9.60;;;1.83;;
73776;SDS011;62088;50.240;2.696;2022-12-26T07:54:18;9.57;;;1.80;;
73776;SDS011;62088;50.240;2.696;2022-12-26T07:56:45;9.30;;;2.38;;
73776;SDS011;62088;50.240;2.696;2022-12-26T07:59:13;11.18;;;2.03;;
73776;SDS011;62088;50.240;2.696;2022-12-26T08:01:41;8.43;;;2.00;;
73776;SDS011;62088;50.240;2.696;2022-12-26T08:04:09;6.45;;;2.17;;
73776;SDS011;62088;50.240;2.696;2022-12-26T08:06:38;7.93;;;2.10;;
73776;SDS011;62088;50.240;2.696;2022-12-26T08:09:06;7.75;;;1.92;;
73776;SDS011;62088;50.240;2.696;2022-12-26T08:11:33;7.20;;;2.00;;
73776;SDS011;62088;50.240;2.696;2022-12-26T08:14:01;4.80;;;1.83;;
73776;SDS011;62088;50.240;2.696;2022-12-26T08:16:28;7.72;;;2.22;;
73776;SDS011;62088;50.240;2.696;2022-12-26T08:18:56;7.30;;;2.33;;
73776;SDS011;62088;50.240;2.696;2022-12-26T08:21:23;9.32;;;2.28;;
73776;SDS011;62088;50.240;2.696;2022-12-26T08:23:50;10.20;;;2.28;;
73776;SDS011;62088;50.240;2.696;2022-12-26T08:26:18;9.98;;;2.55;;
73776;SDS011;62088;50.240;2.696;2022-12-26T08:28:49;9.65;;;2.95;;
73776;SDS011;62088;50.240;2.696;2022-12-26T08:31:18;9.43;;;2.70;;
73776;SDS011;62088;50.240;2.696;2022-12-26T08:33:45;9.40;;;2.80;;
73776;SDS011;62088;50.240;2.696;2022-12-26T08:36:13;6.55;;;2.63;;
73776;SDS011;62088;50.240;2.696;2022-12-26T08:38:44;11.57;;;3.10;;
73776;SDS011;62088;50.240;2.696;2022-12-26T08:41:11;16.13;;;3.28;;
73776;SDS011;62088;50.240;2.696;2022-12-26T08:43:39;14.73;;;2.72;;
73776;SDS011;62088;50.240;2.696;2022-12-26T08:46:26;8.57;;;2.50;;
73776;SDS011;62088;50.240;2.696;2022-12-26T08:48:53;14.57;;;3.08;;
73776;SDS011;62088;50.240;2.696;2022-12-26T08:51:21;10.48;;;4.00;;
73776;SDS011;62088;50.240;2.696;2022-12-26T08:53:50;11.18;;;3.35;;
73776;SDS011;62088;50.240;2.696;2022-12-26T08:56:20;8.10;;;2.30;;
73776;SDS011;62088;50.240;2.696;2022-12-26T08:58:52;13.80;;;2.95;;
73776;SDS011;62088;50.240;2.696;2022-12-26T09:01:20;14.25;;;2.92;;
73776;SDS011;62088;50.240;2.696;2022-12-26T09:03:53;11.43;;;2.85;;
73776;SDS011;62088;50.240;2.696;2022-12-26T09:06:21;10.77;;;3.25;;
73776;SDS011;62088;50.240;2.696;2022-12-26T09:08:49;12.50;;;2.95;;
73776;SDS011;62088;50.240;2.696;2022-12-26T09:11:17;9.38;;;2.72;;
73776;SDS011;62088;50.240;2.696;2022-12-26T09:13:52;8.88;;;3.10;;
73776;SDS011;62088;50.240;2.696;2022-12-26T09:16:22;9.98;;;2.70;;
73776;SDS011;62088;50.240;2.696;2022-12-26T09:18:58;9.35;;;2.92;;
73776;SDS011;62088;50.240;2.696;2022-12-26T09:21:27;15.30;;;3.30;;
73776;SDS011;62088;50.240;2.696;2022-12-26T09:23:56;14.25;;;2.65;;
73776;SDS011;62088;50.240;2.696;2022-12-26T09:26:28;9.18;;;2.53;;
73776;SDS011;62088;50.240;2.696;2022-12-26T09:28:55;7.75;;;2.60;;
73776;SDS011;62088;50.240;2.696;2022-12-26T09:31:24;9.80;;;2.67;;
73776;SDS011;62088;50.240;2.696;2022-12-26T09:33:53;10.35;;;3.05;;
73776;SDS011;62088;50.240;2.696;2022-12-26T09:36:22;11.13;;;2.25;;
73776;SDS011;62088;50.240;2.696;2022-12-26T09:38:52;12.43;;;2.40;;
73776;SDS011;62088;50.240;2.696;2022-12-26T09:49:29;19.52;;;2.63;;
73776;SDS011;62088;50.240;2.696;2022-12-26T09:51:59;15.65;;;2.40;;
73776;SDS011;62088;50.240;2.696;2022-12-26T09:54:50;14.98;;;2.38;;
73776;SDS011;62088;50.240;2.696;2022-12-26T09:57:22;13.20;;;1.90;;
73776;SDS011;62088;50.240;2.696;2022-12-26T10:39:35;19.13;;;2.75;;
73776;SDS011;62088;50.240;2.696;2022-12-26T11:39:50;9.85;;;2.22;;
73776;SDS011;62088;50.240;2.696;2022-12-26T11:42:20;6.07;;;1.63;;
73776;SDS011;62088;50.240;2.696;2022-12-26T11:44:49;6.65;;;1.50;;
73776;SDS011;62088;50.240;2.696;2022-12-26T11:47:18;7.63;;;1.60;;
73776;SDS011;62088;50.240;2.696;2022-12-26T12:00:42;8.25;;;1.63;;
73776;SDS011;62088;50.240;2.696;2022-12-26T12:09:11;8.90;;;1.55;;
73776;SDS011;62088;50.240;2.696;2022-12-26T12:17:39;10.20;;;1.40;;
73776;SDS011;62088;50.240;2.696;2022-12-26T12:34:07;9.18;;;2.10;;
73776;SDS011;62088;50.240;2.696;2022-12-26T12:42:35;9.07;;;1.98;;
73776;SDS011;62088;50.240;2.696;2022-12-26T12:48:02;7.55;;;1.98;;
73776;SDS011;62088;50.240;2.696;2022-12-26T12:50:42;5.03;;;1.30;;
73776;SDS011;62088;50.240;2.696;2022-12-26T12:56:36;4.90;;;1.20;;
73776;SDS011;62088;50.240;2.696;2022-12-26T13:01:48;8.75;;;1.42;;
73776;SDS011;62088;50.240;2.696;2022-12-26T13:04:22;6.45;;;1.52;;
73776;SDS011;62088;50.240;2.696;2022-12-26T13:07:15;10.00;;;1.58;;
73776;SDS011;62088;50.240;2.696;2022-12-26T13:09:50;5.82;;;1.45;;
73776;SDS011;62088;50.240;2.696;2022-12-26T13:12:22;7.60;;;1.33;;
73776;SDS011;62088;50.240;2.696;2022-12-26T13:14:59;5.50;;;1.23;;
73776;SDS011;62088;50.240;2.696;2022-12-26T13:17:32;10.07;;;1.52;;
73776;SDS011;62088;50.240;2.696;2022-12-26T13:22:54;9.38;;;1.90;;
73776;SDS011;62088;50.240;2.696;2022-12-26T13:26:19;8.07;;;2.15;;
73776;SDS011;62088;50.240;2.696;2022-12-26T13:28:46;9.23;;;1.50;;
73776;SDS011;62088;50.240;2.696;2022-12-26T13:31:21;8.80;;;1.75;;
73776;SDS011;62088;50.240;2.696;2022-12-26T13:33:48;7.00;;;1.30;;
73776;SDS011;62088;50.240;2.696;2022-12-26T13:42:32;11.07;;;1.08;;
73776;SDS011;62088;50.240;2.696;2022-12-26T13:44:52;6.30;;;1.10;;
73776;SDS011;62088;50.240;2.696;2022-12-26T13:47:29;6.93;;;1.20;;
73776;SDS011;62088;50.240;2.696;2022-12-26T14:09:04;6.60;;;1.45;;
73776;SDS011;62088;50.240;2.696;2022-12-26T14:20:05;5.93;;;1.50;;
73776;SDS011;62088;50.240;2.696;2022-12-26T14:37:03;4.90;;;1.33;;
73776;SDS011;62088;50.240;2.696;2022-12-26T14:39:37;5.75;;;1.20;;
73776;SDS011;62088;50.240;2.696;2022-12-26T14:42:19;5.75;;;1.40;;
73776;SDS011;62088;50.240;2.696;2022-12-26T14:45:13;6.72;;;1.70;;
73776;SDS011;62088;50.240;2.696;2022-12-26T14:47:58;8.35;;;1.48;;
73776;SDS011;62088;50.240;2.696;2022-12-26T14:56:36;8.48;;;1.50;;
73776;SDS011;62088;50.240;2.696;2022-12-26T14:58:47;6.10;;;1.17;;
73776;SDS011;62088;50.240;2.696;2022-12-26T15:15:32;12.82;;;1.73;;
73776;SDS011;62088;50.240;2.696;2022-12-26T15:30:21;8.02;;;1.38;;
73776;SDS011;62088;50.240;2.696;2022-12-26T15:33:18;7.50;;;1.35;;
73776;SDS011;62088;50.240;2.696;2022-12-26T15:38:35;12.00;;;2.22;;
73776;SDS011;62088;50.240;2.696;2022-12-26T15:41:14;7.80;;;2.10;;
73776;SDS011;62088;50.240;2.696;2022-12-26T15:49:44;7.78;;;2.30;;
73776;SDS011;62088;50.240;2.696;2022-12-26T15:55:16;7.90;;;2.92;;
73776;SDS011;62088;50.240;2.696;2022-12-26T16:00:48;13.77;;;3.17;;
73776;SDS011;62088;50.240;2.696;2022-12-26T16:03:35;9.68;;;3.08;;
73776;SDS011;62088;50.240;2.696;2022-12-26T16:07:05;12.43;;;3.60;;
73776;SDS011;62088;50.240;2.696;2022-12-26T16:12:18;12.40;;;3.03;;
73776;SDS011;62088;50.240;2.696;2022-12-26T16:14:49;11.60;;;3.20;;
73776;SDS011;62088;50.240;2.696;2022-12-26T16:17:26;8.18;;;2.95;;
73776;SDS011;62088;50.240;2.696;2022-12-26T16:19:54;8.35;;;2.88;;
73776;SDS011;62088;50.240;2.696;2022-12-26T16:22:24;17.83;;;3.80;;
73776;SDS011;62088;50.240;2.696;2022-12-26T16:25:14;6.28;;;3.30;;
73776;SDS011;62088;50.240;2.696;2022-12-26T16:27:45;8.90;;;3.50;;
73776;SDS011;62088;50.240;2.696;2022-12-26T16:30:16;7.43;;;3.70;;
73776;SDS011;62088;50.240;2.696;2022-12-26T16:32:46;11.63;;;4.05;;
73776;SDS011;62088;50.240;2.696;2022-12-26T16:35:15;11.63;;;3.85;;
73776;SDS011;62088;50.240;2.696;2022-12-26T16:37:48;11.00;;;4.65;;
73776;SDS011;62088;50.240;2.696;2022-12-26T16:40:32;9.88;;;4.00;;
73776;SDS011;62088;50.240;2.696;2022-12-26T16:43:08;10.50;;;3.53;;
73776;SDS011;62088;50.240;2.696;2022-12-26T16:45:57;10.55;;;3.35;;
73776;SDS011;62088;50.240;2.696;2022-12-26T16:48:29;8.45;;;3.20;;
73776;SDS011;62088;50.240;2.696;2022-12-26T16:51:05;11.43;;;2.88;;
73776;SDS011;62088;50.240;2.696;2022-12-26T16:56:30;16.88;;;3.38;;
73776;SDS011;62088;50.240;2.696;2022-12-26T17:01:32;5.95;;;1.85;;
73776;SDS011;62088;50.240;2.696;2022-12-26T17:04:05;6.00;;;2.00;;
73776;SDS011;62088;50.240;2.696;2022-12-26T17:06:46;7.93;;;2.22;;
73776;SDS011;62088;50.240;2.696;2022-12-26T17:09:17;7.38;;;2.10;;
73776;SDS011;62088;50.240;2.696;2022-12-26T17:14:20;17.42;;;4.55;;
73776;SDS011;62088;50.240;2.696;2022-12-26T17:17:00;9.82;;;3.78;;
73776;SDS011;62088;50.240;2.696;2022-12-26T17:19:35;9.48;;;3.80;;
73776;SDS011;62088;50.240;2.696;2022-12-26T17:24:45;6.82;;;3.20;;
73776;SDS011;62088;50.240;2.696;2022-12-26T17:29:50;11.10;;;3.35;;
73776;SDS011;62088;50.240;2.696;2022-12-26T17:34:50;10.50;;;3.20;;
73776;SDS011;62088;50.240;2.696;2022-12-26T17:37:19;10.45;;;3.15;;
73776;SDS011;62088;50.240;2.696;2022-12-26T17:39:50;6.57;;;2.38;;
73776;SDS011;62088;50.240;2.696;2022-12-26T17:44:50;13.10;;;2.70;;
73776;SDS011;62088;50.240;2.696;2022-12-26T17:47:21;11.90;;;2.75;;
73776;SDS011;62088;50.240;2.696;2022-12-26T17:49:51;7.05;;;3.60;;
73776;SDS011;62088;50.240;2.696;2022-12-26T17:52:26;7.70;;;2.97;;
73776;SDS011;62088;50.240;2.696;2022-12-26T17:54:57;13.45;;;3.40;;
73776;SDS011;62088;50.240;2.696;2022-12-26T17:57:26;37.17;;;19.42;;
73776;SDS011;62088;50.240;2.696;2022-12-26T17:59:54;40.80;;;16.10;;
73776;SDS011;62088;50.240;2.696;2022-12-26T18:02:22;41.65;;;20.55;;
73776;SDS011;62088;50.240;2.696;2022-12-26T18:04:50;26.20;;;10.65;;
73776;SDS011;62088;50.240;2.696;2022-12-26T18:07:18;8.90;;;4.78;;
73776;SDS011;62088;50.240;2.696;2022-12-26T18:09:57;10.18;;;4.38;;
73776;SDS011;62088;50.240;2.696;2022-12-26T18:12:25;15.73;;;3.80;;
73776;SDS011;62088;50.240;2.696;2022-12-26T18:14:53;11.60;;;5.05;;
73776;SDS011;62088;50.240;2.696;2022-12-26T18:17:27;8.35;;;4.00;;
73776;SDS011;62088;50.240;2.696;2022-12-26T18:19:57;14.32;;;5.72;;
73776;SDS011;62088;50.240;2.696;2022-12-26T18:22:24;12.45;;;5.13;;
73776;SDS011;62088;50.240;2.696;2022-12-26T18:24:51;11.57;;;4.78;;
73776;SDS011;62088;50.240;2.696;2022-12-26T18:27:27;13.10;;;5.90;;
73776;SDS011;62088;50.240;2.696;2022-12-26T18:29:57;11.88;;;5.75;;
73776;SDS011;62088;50.240;2.696;2022-12-26T18:32:30;11.30;;;5.88;;
73776;SDS011;62088;50.240;2.696;2022-12-26T18:34:58;16.55;;;6.57;;
73776;SDS011;62088;50.240;2.696;2022-12-26T18:37:27;11.15;;;3.95;;
73776;SDS011;62088;50.240;2.696;2022-12-26T18:39:55;11.73;;;4.70;;
73776;SDS011;62088;50.240;2.696;2022-12-26T18:42:22;10.80;;;3.67;;
73776;SDS011;62088;50.240;2.696;2022-12-26T18:44:50;11.18;;;3.38;;
73776;SDS011;62088;50.240;2.696;2022-12-26T18:47:18;9.38;;;3.47;;
73776;SDS011;62088;50.240;2.696;2022-12-26T18:49:46;9.65;;;3.22;;
73776;SDS011;62088;50.240;2.696;2022-12-26T18:52:15;7.80;;;3.30;;
73776;SDS011;62088;50.240;2.696;2022-12-26T18:54:43;15.45;;;4.07;;
73776;SDS011;62088;50.240;2.696;2022-12-26T18:57:13;11.38;;;4.32;;
73776;SDS011;62088;50.240;2.696;2022-12-26T18:59:45;12.30;;;5.70;;
73776;SDS011;62088;50.240;2.696;2022-12-26T19:02:14;41.50;;;21.30;;
73776;SDS011;62088;50.240;2.696;2022-12-26T19:04:43;12.23;;;5.97;;
73776;SDS011;62088;50.240;2.696;2022-12-26T19:07:14;12.65;;;5.03;;
73776;SDS011;62088;50.240;2.696;2022-12-26T19:09:43;11.70;;;5.13;;
73776;SDS011;62088;50.240;2.696;2022-12-26T19:12:11;7.80;;;3.90;;
73776;SDS011;62088;50.240;2.696;2022-12-26T19:14:38;11.75;;;4.38;;
73776;SDS011;62088;50.240;2.696;2022-12-26T19:17:05;9.57;;;3.80;;
73776;SDS011;62088;50.240;2.696;2022-12-26T19:19:32;9.65;;;3.35;;
73776;SDS011;62088;50.240;2.696;2022-12-26T19:21:59;7.85;;;3.20;;
73776;SDS011;62088;50.240;2.696;2022-12-26T19:24:26;9.02;;;2.83;;
73776;SDS011;62088;50.240;2.696;2022-12-26T19:26:53;9.70;;;3.50;;
73776;SDS011;62088;50.240;2.696;2022-12-26T19:29:20;5.32;;;2.28;;
73776;SDS011;62088;50.240;2.696;2022-12-26T19:31:47;12.80;;;3.70;;
73776;SDS011;62088;50.240;2.696;2022-12-26T19:34:14;7.70;;;2.13;;
73776;SDS011;62088;50.240;2.696;2022-12-26T19:36:41;7.25;;;2.88;;
73776;SDS011;62088;50.240;2.696;2022-12-26T19:39:08;9.48;;;2.88;;
73776;SDS011;62088;50.240;2.696;2022-12-26T19:41:35;8.02;;;2.60;;
73776;SDS011;62088;50.240;2.696;2022-12-26T19:44:02;8.85;;;3.40;;
73776;SDS011;62088;50.240;2.696;2022-12-26T19:46:29;9.82;;;2.60;;
73776;SDS011;62088;50.240;2.696;2022-12-26T19:48:56;8.20;;;3.25;;
73776;SDS011;62088;50.240;2.696;2022-12-26T19:51:24;10.73;;;3.28;;
73776;SDS011;62088;50.240;2.696;2022-12-26T19:53:50;8.07;;;3.50;;
73776;SDS011;62088;50.240;2.696;2022-12-26T19:56:22;12.57;;;3.83;;
73776;SDS011;62088;50.240;2.696;2022-12-26T19:58:50;11.23;;;4.35;;
73776;SDS011;62088;50.240;2.696;2022-12-26T20:01:23;10.23;;;3.03;;
73776;SDS011;62088;50.240;2.696;2022-12-26T20:03:55;9.15;;;3.15;;
73776;SDS011;62088;50.240;2.696;2022-12-26T20:06:24;11.52;;;4.57;;
73776;SDS011;62088;50.240;2.696;2022-12-26T20:08:54;9.07;;;3.53;;
73776;SDS011;62088;50.240;2.696;2022-12-26T20:11:26;10.40;;;3.67;;
73776;SDS011;62088;50.240;2.696;2022-12-26T20:13:55;10.73;;;3.30;;
73776;SDS011;62088;50.240;2.696;2022-12-26T20:16:23;13.32;;;3.28;;
73776;SDS011;62088;50.240;2.696;2022-12-26T20:19:11;14.65;;;3.72;;
73776;SDS011;62088;50.240;2.696;2022-12-26T20:21:38;11.48;;;3.95;;
73776;SDS011;62088;50.240;2.696;2022-12-26T20:24:05;10.68;;;2.97;;
73776;SDS011;62088;50.240;2.696;2022-12-26T20:26:32;8.32;;;3.17;;
73776;SDS011;62088;50.240;2.696;2022-12-26T20:29:00;7.72;;;3.05;;
73776;SDS011;62088;50.240;2.696;2022-12-26T20:31:27;10.65;;;3.20;;
73776;SDS011;62088;50.240;2.696;2022-12-26T20:33:56;15.60;;;3.05;;